sensor_id;sensor_type;location;lat;lon;timestamp;pressure;altitude;pressure_sealevel;temperature;humidity
4570;BME280;2297;51.442;6.996;2023-04-02T00:00:09;99545.75;;;9.54;58.68
4570;BME280;2297;51.442;6.996;2023-04-02T00:02:45;99557.44;;;9.43;59.60
4570;BME280;2297;51.442;6.996;2023-04-02T00:05:39;99562.19;;;9.62;58.39
4570;BME280;2297;51.442;6.996;2023-04-02T00:08:19;99566.81;;;9.22;59.12
4570;BME280;2297;51.442;6.996;2023-04-02T00:10:50;99572.38;;;9.44;58.44
4570;BME280;2297;51.442;6.996;2023-04-02T00:13:22;99570.56;;;9.46;58.65
4570;BME280;2297;51.442;6.996;2023-04-02T00:15:51;99584.84;;;9.38;58.50
4570;BME280;2297;51.442;6.996;2023-04-02T00:18:21;99590.97;;;9.40;58.86
4570;BME280;2297;51.442;6.996;2023-04-02T00:20:52;99588.28;;;9.41;58.03
4570;BME280;2297;51.442;6.996;2023-04-02T00:23:19;99591.47;;;9.20;58.38
4570;BME280;2297;51.442;6.996;2023-04-02T00:25:46;99593.69;;;9.35;58.08
4570;BME280;2297;51.442;6.996;2023-04-02T00:28:15;99601.03;;;9.24;59.14
4570;BME280;2297;51.442;6.996;2023-04-02T00:30:47;99611.19;;;9.05;59.23
4570;BME280;2297;51.442;6.996;2023-04-02T00:33:19;99606.63;;;9.11;59.00
4570;BME280;2297;51.442;6.996;2023-04-02T00:35:47;99626.47;;;9.25;58.98
4570;BME280;2297;51.442;6.996;2023-04-02T00:38:19;99623.69;;;9.31;58.75
4570;BME280;2297;51.442;6.996;2023-04-02T00:40:48;99635.41;;;9.19;58.41
4570;BME280;2297;51.442;6.996;2023-04-02T00:43:26;99644.16;;;9.21;58.13
4570;BME280;2297;51.442;6.996;2023-04-02T00:45:56;99638.22;;;9.11;58.11
4570;BME280;2297;51.442;6.996;2023-04-02T00:48:40;99650.81;;;9.00;58.15
4570;BME280;2297;51.442;6.996;2023-04-02T00:51:15;99654.88;;;9.13;58.38
4570;BME280;2297;51.442;6.996;2023-04-02T00:53:44;99651.44;;;9.10;58.43
4570;BME280;2297;51.442;6.996;2023-04-02T00:56:15;99654.13;;;9.08;58.50
4570;BME280;2297;51.442;6.996;2023-04-02T00:58:49;99665.56;;;9.07;58.50
4570;BME280;2297;51.442;6.996;2023-04-02T01:01:19;99668.81;;;9.17;57.20
4570;BME280;2297;51.442;6.996;2023-04-02T01:03:57;99674.50;;;9.02;57.61
4570;BME280;2297;51.442;6.996;2023-04-02T01:06:29;99681.22;;;9.13;57.17
4570;BME280;2297;51.442;6.996;2023-04-02T01:09:15;99687.25;;;9.19;57.49
4570;BME280;2297;51.442;6.996;2023-04-02T01:11:53;99688.94;;;9.20;57.29
4570;BME280;2297;51.442;6.996;2023-04-02T01:14:34;99690.69;;;9.21;56.72
4570;BME280;2297;51.442;6.996;2023-04-02T01:17:12;99689.69;;;9.25;56.83
4570;BME280;2297;51.442;6.996;2023-04-02T01:20:18;99704.97;;;9.10;56.23
4570;BME280;2297;51.442;6.996;2023-04-02T01:22:53;99703.78;;;8.88;57.11
4570;BME280;2297;51.442;6.996;2023-04-02T01:25:27;99713.53;;;8.84;56.75
4570;BME280;2297;51.442;6.996;2023-04-02T01:27:58;99708.28;;;8.84;56.73
4570;BME280;2297;51.442;6.996;2023-04-02T01:30:30;99718.59;;;8.53;57.61
4570;BME280;2297;51.442;6.996;2023-04-02T01:32:58;99716.56;;;8.64;57.09
4570;BME280;2297;51.442;6.996;2023-04-02T01:35:29;99725.38;;;8.63;57.25
4570;BME280;2297;51.442;6.996;2023-04-02T01:38:04;99735.59;;;8.78;56.43
4570;BME280;2297;51.442;6.996;2023-04-02T01:40:37;99734.72;;;8.78;56.88
4570;BME280;2297;51.442;6.996;2023-04-02T01:43:15;99745.84;;;8.91;57.03
4570;BME280;2297;51.442;6.996;2023-04-02T01:45:46;99743.22;;;8.91;56.26
4570;BME280;2297;51.442;6.996;2023-04-02T01:48:16;99748.53;;;8.88;56.58
4570;BME280;2297;51.442;6.996;2023-04-02T01:50:44;99755.25;;;9.01;55.75
4570;BME280;2297;51.442;6.996;2023-04-02T01:53:17;99759.75;;;8.96;55.79
4570;BME280;2297;51.442;6.996;2023-04-02T01:55:46;99752.78;;;8.95;55.57
4570;BME280;2297;51.442;6.996;2023-04-02T01:58:16;99761.63;;;8.92;56.31
4570;BME280;2297;51.442;6.996;2023-04-02T02:00:48;99769.59;;;8.88;55.77
4570;BME280;2297;51.442;6.996;2023-04-02T02:03:16;99768.78;;;8.86;56.02
4570;BME280;2297;51.442;6.996;2023-04-02T02:05:44;99767.94;;;8.84;56.08
4570;BME280;2297;51.442;6.996;2023-04-02T02:08:22;99776.56;;;8.90;56.13
4570;BME280;2297;51.442;6.996;2023-04-02T02:10:50;99784.75;;;8.78;56.09
4570;BME280;2297;51.442;6.996;2023-04-02T02:13:17;99795.44;;;8.70;55.89
4570;BME280;2297;51.442;6.996;2023-04-02T02:15:43;99792.66;;;8.78;55.25
4570;BME280;2297;51.442;6.996;2023-04-02T02:18:12;99791.00;;;8.74;55.60
4570;BME280;2297;51.442;6.996;2023-04-02T02:20:42;99801.84;;;8.57;56.22
4570;BME280;2297;51.442;6.996;2023-04-02T02:23:09;99806.41;;;8.48;55.99
4570;BME280;2297;51.442;6.996;2023-04-02T02:25:37;99806.41;;;8.48;55.58
4570;BME280;2297;51.442;6.996;2023-04-02T02:28:07;99811.94;;;8.33;55.71
4570;BME280;2297;51.442;6.996;2023-04-02T02:30:36;99827.84;;;8.27;55.71
4570;BME280;2297;51.442;6.996;2023-04-02T02:33:09;99829.56;;;8.31;55.44
4570;BME280;2297;51.442;6.996;2023-04-02T02:35:45;99834.91;;;8.25;56.07
4570;BME280;2297;51.442;6.996;2023-04-02T02:38:36;99824.81;;;8.03;55.98
4570;BME280;2297;51.442;6.996;2023-04-02T02:41:10;99836.09;;;8.10;56.11
4570;BME280;2297;51.442;6.996;2023-04-02T02:43:43;99842.88;;;8.22;55.79
4570;BME280;2297;51.442;6.996;2023-04-02T02:46:15;99841.97;;;8.23;55.25
4570;BME280;2297;51.442;6.996;2023-04-02T02:48:43;99844.88;;;8.07;56.30
4570;BME280;2297;51.442;6.996;2023-04-02T02:51:17;99856.22;;;8.09;55.98
4570;BME280;2297;51.442;6.996;2023-04-02T02:53:49;99863.13;;;8.17;55.68
4570;BME280;2297;51.442;6.996;2023-04-02T02:56:18;99868.72;;;7.98;55.93
4570;BME280;2297;51.442;6.996;2023-04-02T02:58:45;99868.50;;;8.10;55.60
4570;BME280;2297;51.442;6.996;2023-04-02T03:01:13;99879.00;;;8.10;56.14
4570;BME280;2297;51.442;6.996;2023-04-02T03:03:40;99887.84;;;8.06;55.71
4570;BME280;2297;51.442;6.996;2023-04-02T03:06:14;99885.56;;;7.86;56.17
4570;BME280;2297;51.442;6.996;2023-04-02T03:08:48;99886.00;;;8.13;56.50
4570;BME280;2297;51.442;6.996;2023-04-02T03:11:22;99899.06;;;8.16;55.65
4570;BME280;2297;51.442;6.996;2023-04-02T03:13:55;99905.06;;;8.26;55.41
4570;BME280;2297;51.442;6.996;2023-04-02T03:16:30;99904.22;;;8.24;55.52
4570;BME280;2297;51.442;6.996;2023-04-02T03:19:03;99910.31;;;8.26;55.41
4570;BME280;2297;51.442;6.996;2023-04-02T03:21:35;99915.53;;;8.29;55.59
4570;BME280;2297;51.442;6.996;2023-04-02T03:24:11;99931.38;;;8.26;55.67
4570;BME280;2297;51.442;6.996;2023-04-02T03:26:44;99931.31;;;8.29;55.65
4570;BME280;2297;51.442;6.996;2023-04-02T03:29:16;99942.63;;;8.34;55.15
4570;BME280;2297;51.442;6.996;2023-04-02T03:31:46;99952.25;;;8.35;54.82
4570;BME280;2297;51.442;6.996;2023-04-02T03:34:19;99952.44;;;8.23;54.30
4570;BME280;2297;51.442;6.996;2023-04-02T03:36:53;99960.28;;;8.27;54.42
4570;BME280;2297;51.442;6.996;2023-04-02T03:39:25;99969.97;;;8.24;54.62
4570;BME280;2297;51.442;6.996;2023-04-02T03:41:57;99968.13;;;8.29;54.49
4570;BME280;2297;51.442;6.996;2023-04-02T03:44:32;99980.78;;;8.07;54.99
4570;BME280;2297;51.442;6.996;2023-04-02T03:47:04;99986.94;;;8.04;54.82
4570;BME280;2297;51.442;6.996;2023-04-02T03:49:40;99982.53;;;8.06;54.97
4570;BME280;2297;51.442;6.996;2023-04-02T03:52:12;99988.03;;;7.91;55.00
4570;BME280;2297;51.442;6.996;2023-04-02T03:54:39;99999.53;;;7.84;54.40
4570;BME280;2297;51.442;6.996;2023-04-02T03:57:11;100005.88;;;7.67;54.35
4570;BME280;2297;51.442;6.996;2023-04-02T03:59:48;100005.25;;;7.50;55.30
4570;BME280;2297;51.442;6.996;2023-04-02T04:02:26;100015.34;;;7.82;54.41
4570;BME280;2297;51.442;6.996;2023-04-02T04:04:59;100017.16;;;7.77;54.31
4570;BME280;2297;51.442;6.996;2023-04-02T04:07:30;100017.31;;;7.66;54.67
4570;BME280;2297;51.442;6.996;2023-04-02T04:09:59;100025.63;;;7.30;55.46
4570;BME280;2297;51.442;6.996;2023-04-02T04:12:29;100035.13;;;7.41;55.07
4570;BME280;2297;51.442;6.996;2023-04-02T04:15:00;100040.34;;;7.45;54.88
4570;BME280;2297;51.442;6.996;2023-04-02T04:17:32;100053.44;;;7.48;55.02
4570;BME280;2297;51.442;6.996;2023-04-02T04:20:13;100039.41;;;7.50;54.52
4570;BME280;2297;51.442;6.996;2023-04-02T04:22:42;100053.31;;;7.58;54.60
4570;BME280;2297;51.442;6.996;2023-04-02T04:25:18;100062.84;;;7.67;54.14
4570;BME280;2297;51.442;6.996;2023-04-02T04:27:54;100068.31;;;7.50;54.51
4570;BME280;2297;51.442;6.996;2023-04-02T04:30:33;100072.69;;;7.51;54.37
4570;BME280;2297;51.442;6.996;2023-04-02T04:33:12;100075.31;;;7.51;54.33
4570;BME280;2297;51.442;6.996;2023-04-02T04:35:45;100082.28;;;7.55;54.37
4570;BME280;2297;51.442;6.996;2023-04-02T04:38:17;100085.03;;;7.44;54.27
4570;BME280;2297;51.442;6.996;2023-04-02T04:40:54;100085.22;;;7.27;55.21
4570;BME280;2297;51.442;6.996;2023-04-02T04:43:27;100087.72;;;7.38;54.35
4570;BME280;2297;51.442;6.996;2023-04-02T04:45:59;100099.28;;;7.17;55.60
4570;BME280;2297;51.442;6.996;2023-04-02T04:48:33;100099.25;;;7.23;54.85
4570;BME280;2297;51.442;6.996;2023-04-02T04:51:05;100106.34;;;7.14;55.06
4570;BME280;2297;51.442;6.996;2023-04-02T04:53:45;100115.00;;;7.26;54.96
4570;BME280;2297;51.442;6.996;2023-04-02T04:56:36;100116.75;;;7.24;54.92
4570;BME280;2297;51.442;6.996;2023-04-02T04:59:12;100131.59;;;7.31;55.01
4570;BME280;2297;51.442;6.996;2023-04-02T05:01:44;100140.22;;;7.44;54.77
4570;BME280;2297;51.442;6.996;2023-04-02T05:04:15;100143.69;;;7.46;54.47
4570;BME280;2297;51.442;6.996;2023-04-02T05:06:50;100144.66;;;7.34;54.64
4570;BME280;2297;51.442;6.996;2023-04-02T05:09:23;100164.72;;;7.44;54.45
4570;BME280;2297;51.442;6.996;2023-04-02T05:12:00;100173.63;;;7.29;54.57
4570;BME280;2297;51.442;6.996;2023-04-02T05:14:33;100176.34;;;7.19;54.36
4570;BME280;2297;51.442;6.996;2023-04-02T05:17:04;100170.16;;;7.26;53.83
4570;BME280;2297;51.442;6.996;2023-04-02T05:19:38;100184.13;;;7.29;54.07
4570;BME280;2297;51.442;6.996;2023-04-02T05:22:14;100178.91;;;7.22;53.78
4570;BME280;2297;51.442;6.996;2023-04-02T05:24:56;100195.72;;;7.02;54.20
4570;BME280;2297;51.442;6.996;2023-04-02T05:27:31;100195.84;;;6.84;54.47
4570;BME280;2297;51.442;6.996;2023-04-02T05:30:05;100202.81;;;6.91;54.10
4570;BME280;2297;51.442;6.996;2023-04-02T05:32:35;100208.16;;;6.75;54.48
4570;BME280;2297;51.442;6.996;2023-04-02T05:35:14;100214.25;;;6.82;54.41
4570;BME280;2297;51.442;6.996;2023-04-02T05:37:42;100224.56;;;7.08;53.82
4570;BME280;2297;51.442;6.996;2023-04-02T05:40:14;100229.00;;;7.00;53.46
4570;BME280;2297;51.442;6.996;2023-04-02T05:42:48;100223.78;;;6.95;53.60
4570;BME280;2297;51.442;6.996;2023-04-02T05:45:22;100234.31;;;6.91;53.83
4570;BME280;2297;51.442;6.996;2023-04-02T05:47:53;100237.81;;;6.90;53.83
4570;BME280;2297;51.442;6.996;2023-04-02T05:50:27;100250.91;;;6.97;53.87
4570;BME280;2297;51.442;6.996;2023-04-02T05:53:18;100239.56;;;6.91;54.12
4570;BME280;2297;51.442;6.996;2023-04-02T05:55:53;100257.91;;;6.94;53.67
4570;BME280;2297;51.442;6.996;2023-04-02T05:58:27;100264.13;;;6.80;53.95
4570;BME280;2297;51.442;6.996;2023-04-02T06:01:03;100274.63;;;6.80;53.67
4570;BME280;2297;51.442;6.996;2023-04-02T06:03:38;100272.09;;;6.68;53.73
4570;BME280;2297;51.442;6.996;2023-04-02T06:06:14;100280.78;;;6.78;53.87
4570;BME280;2297;51.442;6.996;2023-04-02T06:08:49;100287.78;;;6.74;53.51
4570;BME280;2297;51.442;6.996;2023-04-02T06:11:21;100287.75;;;6.82;53.24
4570;BME280;2297;51.442;6.996;2023-04-02T06:13:50;100292.94;;;6.91;53.50
4570;BME280;2297;51.442;6.996;2023-04-02T06:16:26;100306.03;;;6.99;52.69
4570;BME280;2297;51.442;6.996;2023-04-02T06:18:55;100308.66;;;7.01;52.78
4570;BME280;2297;51.442;6.996;2023-04-02T06:21:22;100317.41;;;6.98;52.18
4570;BME280;2297;51.442;6.996;2023-04-02T06:23:52;100318.25;;;7.05;52.11
4570;BME280;2297;51.442;6.996;2023-04-02T06:26:25;100327.88;;;7.06;51.79
4570;BME280;2297;51.442;6.996;2023-04-02T06:28:58;100326.19;;;6.95;51.97
4570;BME280;2297;51.442;6.996;2023-04-02T06:31:29;100341.94;;;6.98;52.23
4570;BME280;2297;51.442;6.996;2023-04-02T06:34:00;100339.34;;;6.86;51.96
4570;BME280;2297;51.442;6.996;2023-04-02T06:36:28;100346.31;;;6.96;51.90
4570;BME280;2297;51.442;6.996;2023-04-02T06:39:00;100347.22;;;6.92;52.13
4570;BME280;2297;51.442;6.996;2023-04-02T06:41:30;100358.59;;;6.88;52.25
4570;BME280;2297;51.442;6.996;2023-04-02T06:43:59;100363.88;;;6.80;51.94
4570;BME280;2297;51.442;6.996;2023-04-02T06:46:31;100373.56;;;6.68;53.13
4570;BME280;2297;51.442;6.996;2023-04-02T06:49:08;100375.31;;;6.70;52.49
4570;BME280;2297;51.442;6.996;2023-04-02T06:51:39;100382.31;;;6.76;52.73
4570;BME280;2297;51.442;6.996;2023-04-02T06:54:12;100386.66;;;6.81;52.46
4570;BME280;2297;51.442;6.996;2023-04-02T06:56:42;100395.38;;;6.85;52.28
4570;BME280;2297;51.442;6.996;2023-04-02T06:59:10;100407.63;;;6.78;52.74
4570;BME280;2297;51.442;6.996;2023-04-02T07:01:40;100407.63;;;6.85;52.28
4570;BME280;2297;51.442;6.996;2023-04-02T07:04:09;100411.13;;;6.84;52.66
4570;BME280;2297;51.442;6.996;2023-04-02T07:06:36;100411.97;;;6.95;52.78
4570;BME280;2297;51.442;6.996;2023-04-02T07:09:03;100411.06;;;7.01;52.60
4570;BME280;2297;51.442;6.996;2023-04-02T07:11:31;100423.31;;;7.00;52.07
4570;BME280;2297;51.442;6.996;2023-04-02T07:13:59;100426.78;;;7.08;51.46
4570;BME280;2297;51.442;6.996;2023-04-02T07:16:27;100434.66;;;7.08;51.33
4570;BME280;2297;51.442;6.996;2023-04-02T07:18:55;100441.66;;;7.11;51.08
4570;BME280;2297;51.442;6.996;2023-04-02T07:21:23;100448.66;;;7.13;50.94
4570;BME280;2297;51.442;6.996;2023-04-02T07:23:50;100449.50;;;7.15;51.27
4570;BME280;2297;51.442;6.996;2023-04-02T07:26:21;100461.81;;;7.10;51.48
4570;BME280;2297;51.442;6.996;2023-04-02T07:28:49;100463.63;;;6.84;51.20
4570;BME280;2297;51.442;6.996;2023-04-02T07:31:20;100470.66;;;6.81;51.56
4570;BME280;2297;51.442;6.996;2023-04-02T07:33:47;100479.38;;;6.96;51.09
4570;BME280;2297;51.442;6.996;2023-04-02T07:36:16;100478.47;;;7.00;50.91
4570;BME280;2297;51.442;6.996;2023-04-02T07:38:43;100480.19;;;7.12;50.46
4570;BME280;2297;51.442;6.996;2023-04-02T07:41:11;100485.41;;;7.20;50.29
4570;BME280;2297;51.442;6.996;2023-04-02T07:43:38;100488.00;;;7.23;50.80
4570;BME280;2297;51.442;6.996;2023-04-02T07:46:06;100486.28;;;7.28;50.46
4570;BME280;2297;51.442;6.996;2023-04-02T07:48:34;100493.25;;;7.32;51.38
4570;BME280;2297;51.442;6.996;2023-04-02T07:51:01;100501.97;;;7.40;50.30
4570;BME280;2297;51.442;6.996;2023-04-02T07:53:30;100504.63;;;7.32;49.92
4570;BME280;2297;51.442;6.996;2023-04-02T07:55:59;100510.75;;;7.42;49.86
4570;BME280;2297;51.442;6.996;2023-04-02T07:58:27;100520.44;;;7.28;50.03
4570;BME280;2297;51.442;6.996;2023-04-02T08:00:53;100517.81;;;7.19;49.65
4570;BME280;2297;51.442;6.996;2023-04-02T08:03:20;100526.53;;;7.24;49.60
4570;BME280;2297;51.442;6.996;2023-04-02T08:05:53;100537.91;;;7.24;50.05
4570;BME280;2297;51.442;6.996;2023-04-02T08:08:20;100537.09;;;7.08;49.81
4570;BME280;2297;51.442;6.996;2023-04-02T08:10:47;100533.63;;;6.95;50.06
4570;BME280;2297;51.442;6.996;2023-04-02T08:13:15;100544.97;;;7.02;49.66
4570;BME280;2297;51.442;6.996;2023-04-02T08:15:42;100545.88;;;6.90;50.12
4570;BME280;2297;51.442;6.996;2023-04-02T08:18:10;100559.00;;;7.10;49.89
4570;BME280;2297;51.442;6.996;2023-04-02T08:20:37;100564.19;;;7.27;49.69
4570;BME280;2297;51.442;6.996;2023-04-02T08:23:11;100563.28;;;7.39;49.33
4570;BME280;2297;51.442;6.996;2023-04-02T08:25:39;100567.66;;;7.43;48.71
4570;BME280;2297;51.442;6.996;2023-04-02T08:28:06;100572.97;;;7.28;49.02
4570;BME280;2297;51.442;6.996;2023-04-02T08:30:33;100580.81;;;7.37;49.17
4570;BME280;2297;51.442;6.996;2023-04-02T08:33:00;100585.16;;;7.46;49.24
4570;BME280;2297;51.442;6.996;2023-04-02T08:35:26;100581.69;;;7.31;49.07
4570;BME280;2297;51.442;6.996;2023-04-02T08:37:53;100591.34;;;7.37;48.93
4570;BME280;2297;51.442;6.996;2023-04-02T08:40:26;100592.22;;;7.33;48.85
4570;BME280;2297;51.442;6.996;2023-04-02T08:43:03;100607.09;;;7.15;48.53
4570;BME280;2297;51.442;6.996;2023-04-02T08:45:44;100607.13;;;7.09;48.89
4570;BME280;2297;51.442;6.996;2023-04-02T08:48:13;100612.38;;;7.06;48.99
4570;BME280;2297;51.442;6.996;2023-04-02T08:50:42;100614.97;;;7.22;48.92
4570;BME280;2297;51.442;6.996;2023-04-02T08:53:12;100625.53;;;6.94;48.41
4570;BME280;2297;51.442;6.996;2023-04-02T08:55:45;100623.78;;;7.04;48.58
4570;BME280;2297;51.442;6.996;2023-04-02T08:58:26;100628.16;;;7.28;48.47
4570;BME280;2297;51.442;6.996;2023-04-02T09:00:55;100631.63;;;7.36;48.73
4570;BME280;2297;51.442;6.996;2023-04-02T09:03:27;100633.38;;;7.40;48.46
4570;BME280;2297;51.442;6.996;2023-04-02T09:05:55;100636.00;;;7.40;48.20
4570;BME280;2297;51.442;6.996;2023-04-02T09:08:24;100643.84;;;7.43;48.20
4570;BME280;2297;51.442;6.996;2023-04-02T09:10:59;100636.84;;;7.45;47.69
4570;BME280;2297;51.442;6.996;2023-04-02T09:13:29;100651.69;;;7.60;47.73
4570;BME280;2297;51.442;6.996;2023-04-02T09:16:01;100657.91;;;7.24;48.74
4570;BME280;2297;51.442;6.996;2023-04-02T09:18:31;100656.13;;;7.57;47.62
4570;BME280;2297;51.442;6.996;2023-04-02T09:20:59;100656.03;;;7.72;47.35
4570;BME280;2297;51.442;6.996;2023-04-02T09:23:28;100663.91;;;7.78;46.51
4570;BME280;2297;51.442;6.996;2023-04-02T09:25:56;100668.25;;;7.86;46.71
4570;BME280;2297;51.442;6.996;2023-04-02T09:28:22;100682.28;;;7.88;46.25
4570;BME280;2297;51.442;6.996;2023-04-02T09:31:00;100684.03;;;7.87;46.42
4570;BME280;2297;51.442;6.996;2023-04-02T09:33:45;100692.81;;;7.81;46.34
4570;BME280;2297;51.442;6.996;2023-04-02T09:36:19;100696.31;;;7.93;46.17
4570;BME280;2297;51.442;6.996;2023-04-02T09:38:59;100695.34;;;8.08;46.38
4570;BME280;2297;51.442;6.996;2023-04-02T09:41:28;100700.63;;;8.06;46.29
4570;BME280;2297;51.442;6.996;2023-04-02T09:44:13;100703.19;;;8.19;45.68
4570;BME280;2297;51.442;6.996;2023-04-02T09:46:52;100711.22;;;7.94;45.65
4570;BME280;2297;51.442;6.996;2023-04-02T09:49:22;100706.81;;;7.90;46.26
4570;BME280;2297;51.442;6.996;2023-04-02T09:52:25;100712.97;;;7.89;46.06
4570;BME280;2297;51.442;6.996;2023-04-02T09:55:18;100720.91;;;7.67;46.44
4570;BME280;2297;51.442;6.996;2023-04-02T09:57:48;100722.59;;;7.96;46.08
4570;BME280;2297;51.442;6.996;2023-04-02T10:00:18;100729.56;;;8.00;46.58
4570;BME280;2297;51.442;6.996;2023-04-02T10:02:59;100734.81;;;8.12;46.34
4570;BME280;2297;51.442;6.996;2023-04-02T10:05:26;100741.72;;;8.37;45.95
4570;BME280;2297;51.442;6.996;2023-04-02T10:07:54;100745.22;;;8.40;45.27
4570;BME280;2297;51.442;6.996;2023-04-02T10:10:23;100745.22;;;8.40;45.40
4570;BME280;2297;51.442;6.996;2023-04-02T10:12:58;100755.66;;;8.53;45.24
4570;BME280;2297;51.442;6.996;2023-04-02T10:15:30;100760.03;;;8.52;44.80
4570;BME280;2297;51.442;6.996;2023-04-02T10:18:04;100766.31;;;8.26;45.41
4570;BME280;2297;51.442;6.996;2023-04-02T10:20:33;100769.78;;;8.36;45.45
4570;BME280;2297;51.442;6.996;2023-04-02T10:23:03;100769.81;;;8.31;44.92
4570;BME280;2297;51.442;6.996;2023-04-02T10:25:35;100778.53;;;8.44;44.88
4570;BME280;2297;51.442;6.996;2023-04-02T10:28:12;100782.06;;;8.40;44.70
4570;BME280;2297;51.442;6.996;2023-04-02T10:31:05;100784.72;;;8.28;44.73
4570;BME280;2297;51.442;6.996;2023-04-02T10:33:39;100786.44;;;8.34;44.66
4570;BME280;2297;51.442;6.996;2023-04-02T10:36:16;100797.78;;;8.48;45.40
4570;BME280;2297;51.442;6.996;2023-04-02T10:38:49;100796.06;;;8.45;45.19
4570;BME280;2297;51.442;6.996;2023-04-02T10:41:27;100803.19;;;8.22;45.19
4570;BME280;2297;51.442;6.996;2023-04-02T10:44:07;100806.59;;;8.42;44.47
4570;BME280;2297;51.442;6.996;2023-04-02T10:46:40;100805.81;;;8.11;45.15
4570;BME280;2297;51.442;6.996;2023-04-02T10:49:20;100812.78;;;8.32;44.87
4570;BME280;2297;51.442;6.996;2023-04-02T10:51:54;100822.47;;;8.14;45.15
4570;BME280;2297;51.442;6.996;2023-04-02T10:54:36;100826.88;;;8.15;44.59
4570;BME280;2297;51.442;6.996;2023-04-02T10:57:10;100832.13;;;8.09;44.66
4570;BME280;2297;51.442;6.996;2023-04-02T10:59:41;100842.63;;;8.20;44.82
4570;BME280;2297;51.442;6.996;2023-04-02T11:02:31;100844.38;;;8.30;44.46
4570;BME280;2297;51.442;6.996;2023-04-02T11:05:04;100845.22;;;8.43;44.77
4570;BME280;2297;51.442;6.996;2023-04-02T11:07:41;100843.41;;;8.55;44.22
4570;BME280;2297;51.442;6.996;2023-04-02T11:10:14;100855.66;;;8.62;44.68
4570;BME280;2297;51.442;6.996;2023-04-02T11:12:50;100866.31;;;8.31;44.34
4570;BME280;2297;51.442;6.996;2023-04-02T11:15:20;100869.84;;;8.08;43.80
4570;BME280;2297;51.442;6.996;2023-04-02T11:17:47;100870.69;;;8.27;43.91
4570;BME280;2297;51.442;6.996;2023-04-02T11:20:40;100877.72;;;8.30;44.12
4570;BME280;2297;51.442;6.996;2023-04-02T11:23:09;100882.00;;;8.59;44.34
4570;BME280;2297;51.442;6.996;2023-04-02T11:25:36;100885.50;;;8.70;43.23
4570;BME280;2297;51.442;6.996;2023-04-02T11:28:18;100881.97;;;8.80;42.86
4570;BME280;2297;51.442;6.996;2023-04-02T11:30:53;100888.09;;;8.84;42.75
4570;BME280;2297;51.442;6.996;2023-04-02T11:33:36;100879.34;;;8.76;43.39
4570;BME280;2297;51.442;6.996;2023-04-02T11:36:07;100888.00;;;9.00;42.44
4570;BME280;2297;51.442;6.996;2023-04-02T11:38:52;100892.34;;;9.11;41.56
4570;BME280;2297;51.442;6.996;2023-04-02T11:44:24;100902.03;;;9.09;42.19
4570;BME280;2297;51.442;6.996;2023-04-02T11:47:23;100893.94;;;9.34;41.40
4570;BME280;2297;51.442;6.996;2023-04-02T11:50:02;100906.25;;;9.35;41.33
4570;BME280;2297;51.442;6.996;2023-04-02T11:52:34;100905.34;;;9.39;41.26
4570;BME280;2297;51.442;6.996;2023-04-02T11:55:21;100911.72;;;8.98;41.86
4570;BME280;2297;51.442;6.996;2023-04-02T11:57:56;100913.44;;;9.08;41.02
4570;BME280;2297;51.442;6.996;2023-04-02T12:00:38;100925.69;;;9.19;41.56
4570;BME280;2297;51.442;6.996;2023-04-02T12:03:30;100914.97;;;9.46;41.26
4570;BME280;2297;51.442;6.996;2023-04-02T12:06:04;100927.38;;;9.29;41.75
4570;BME280;2297;51.442;6.996;2023-04-02T12:08:43;100932.66;;;9.26;41.28
4570;BME280;2297;51.442;6.996;2023-04-02T12:11:16;100929.00;;;9.48;40.96
4570;BME280;2297;51.442;6.996;2023-04-02T12:17:16;100943.06;;;9.47;40.41
4570;BME280;2297;51.442;6.996;2023-04-02T12:19:51;100948.22;;;9.66;40.77
4570;BME280;2297;51.442;6.996;2023-04-02T12:22:21;100945.63;;;9.63;40.11
4570;BME280;2297;51.442;6.996;2023-04-02T12:24:48;100943.88;;;9.62;40.36
4570;BME280;2297;51.442;6.996;2023-04-02T12:27:18;100947.31;;;9.73;39.87
4570;BME280;2297;51.442;6.996;2023-04-02T12:29:47;100952.53;;;9.81;39.80
4570;BME280;2297;51.442;6.996;2023-04-02T12:32:22;100957.09;;;9.53;40.20
4570;BME280;2297;51.442;6.996;2023-04-02T12:34:52;100967.53;;;9.74;39.45
4570;BME280;2297;51.442;6.996;2023-04-02T12:37:21;100965.84;;;9.64;39.37
4570;BME280;2297;51.442;6.996;2023-04-02T12:39:53;100969.34;;;9.69;39.11
4570;BME280;2297;51.442;6.996;2023-04-02T12:42:32;100971.94;;;9.71;39.31
4570;BME280;2297;51.442;6.996;2023-04-02T12:44:59;100978.16;;;9.60;39.72
4570;BME280;2297;51.442;6.996;2023-04-02T12:47:26;100979.97;;;9.54;39.38
4570;BME280;2297;51.442;6.996;2023-04-02T12:49:56;100979.94;;;9.57;39.50
4570;BME280;2297;51.442;6.996;2023-04-02T12:52:25;100985.22;;;9.60;38.96
4570;BME280;2297;51.442;6.996;2023-04-02T12:54:55;100986.94;;;9.64;39.12
4570;BME280;2297;51.442;6.996;2023-04-02T12:57:31;100990.47;;;9.63;39.08
4570;BME280;2297;51.442;6.996;2023-04-02T12:59:59;100995.69;;;9.66;39.53
4570;BME280;2297;51.442;6.996;2023-04-02T13:02:31;100993.16;;;9.52;39.26
4570;BME280;2297;51.442;6.996;2023-04-02T13:05:00;101002.09;;;9.28;39.71
4570;BME280;2297;51.442;6.996;2023-04-02T13:07:29;101011.72;;;9.29;39.47
4570;BME280;2297;51.442;6.996;2023-04-02T13:09:57;101007.34;;;9.28;39.70
4570;BME280;2297;51.442;6.996;2023-04-02T13:12:28;101007.34;;;9.29;39.31
4570;BME280;2297;51.442;6.996;2023-04-02T13:14:59;100998.50;;;9.37;39.52
4570;BME280;2297;51.442;6.996;2023-04-02T13:17:41;101003.84;;;9.26;39.65
4570;BME280;2297;51.442;6.996;2023-04-02T13:20:31;101002.16;;;9.11;40.47
4570;BME280;2297;51.442;6.996;2023-04-02T13:22:59;101009.09;;;9.26;40.23
4570;BME280;2297;51.442;6.996;2023-04-02T13:25:28;101008.22;;;9.30;39.64
4570;BME280;2297;51.442;6.996;2023-04-02T13:27:55;101018.72;;;9.39;39.61
4570;BME280;2297;51.442;6.996;2023-04-02T13:30:24;101015.13;;;9.53;39.60
4570;BME280;2297;51.442;6.996;2023-04-02T13:32:51;101017.75;;;9.57;38.81
4570;BME280;2297;51.442;6.996;2023-04-02T13:35:18;101016.94;;;9.38;38.64
4570;BME280;2297;51.442;6.996;2023-04-02T13:37:46;101019.66;;;9.30;38.72
4570;BME280;2297;51.442;6.996;2023-04-02T13:40:14;101012.56;;;9.40;38.23
4570;BME280;2297;51.442;6.996;2023-04-02T13:42:42;101020.38;;;9.54;38.28
4570;BME280;2297;51.442;6.996;2023-04-02T13:45:19;101022.13;;;9.57;37.61
4570;BME280;2297;51.442;6.996;2023-04-02T13:47:47;101021.28;;;9.53;37.91
4570;BME280;2297;51.442;6.996;2023-04-02T13:50:15;101016.84;;;9.60;38.12
4570;BME280;2297;51.442;6.996;2023-04-02T13:52:42;101030.78;;;9.84;38.05
4570;BME280;2297;51.442;6.996;2023-04-02T13:55:11;101028.91;;;10.04;36.95
4570;BME280;2297;51.442;6.996;2023-04-02T13:57:39;101020.78;;;10.30;37.29
4570;BME280;2297;51.442;6.996;2023-04-02T14:00:08;101026.53;;;10.74;36.47